Time;durP1;ratioP1;P1;durP2;ratioP2;P2;SDS_P1;SDS_P2;PMS_P1;PMS_P2;Temp;Humidity;BMP_temperature;BMP_pressure;BME280_temperature;BME280_humidity;BME280_pressure;Samples;Min_cycle;Max_cycle;Signal;HPM_P1;HPM_P2
2023/09/04 00:01:41;;;;;;;;;;;15.50;99.90;;;;;;7581477;19;19930;-71
2023/09/04 00:04:13;;;;;;;;;;;15.50;99.90;;;;;;7585290;19;19919;-72
2023/09/04 00:06:45;;;;;;;;;;;15.60;99.90;;;;;;7581247;19;19926;-72
2023/09/04 00:09:18;;;;;;;;;;;15.60;99.90;;;;;;7583476;19;20023;-72
2023/09/04 00:11:51;;;;;;;;;;;15.60;99.90;;;;;;7607312;19;19922;-73
2023/09/04 00:14:23;;;;;;;;;;;15.60;99.90;;;;;;7609289;19;19919;-73
2023/09/04 00:16:55;;;;;;;;;;;15.60;99.90;;;;;;7606635;19;20338;-73
2023/09/04 00:19:28;;;;;;;;;;;15.50;99.90;;;;;;7607779;19;20550;-73
2023/09/04 00:22:00;;;;;;;;;;;15.50;99.90;;;;;;7589761;19;19949;-73
2023/09/04 00:24:32;;;;;;;;;;;15.50;99.90;;;;;;7605326;19;20295;-72
2023/09/04 00:27:04;;;;;;;;;;;15.50;99.90;;;;;;7602798;19;19922;-73
2023/09/04 00:29:36;;;;;;;;;;;15.50;99.90;;;;;;7607829;19;19930;-73
2023/09/04 00:32:08;;;;;;;;;;;15.50;99.90;;;;;;7605333;19;19929;-73
2023/09/04 00:34:40;;;;;;;;;;;15.50;99.90;;;;;;7594995;19;19926;-73
2023/09/04 00:37:12;;;;;;;;;;;15.50;99.90;;;;;;7577568;19;19962;-73
2023/09/04 00:39:44;;;;;;;;;;;15.50;99.90;;;;;;7599193;19;19942;-73
2023/09/04 00:42:17;;;;;;;;;;;15.40;99.90;;;;;;7591665;19;19911;-72
2023/09/04 00:44:50;;;;;;;;;;;15.40;99.90;;;;;;7598877;19;19927;-72
2023/09/04 00:47:23;;;;;;;;;;;15.40;99.90;;;;;;7582261;19;20353;-73
2023/09/04 00:49:55;;;;;;;;;;;15.40;99.90;;;;;;7551457;19;19919;-73
2023/09/04 00:52:28;;;;;;;;;;;15.40;99.90;;;;;;7593613;19;19926;-72
2023/09/04 00:55:00;;;;;;;;;;;15.40;99.90;;;;;;7607048;19;21857;-72
2023/09/04 00:57:34;;;;;;;;;;;15.30;99.90;;;;;;7598396;19;19919;-72
2023/09/04 01:00:10;;;;;;;;;;;15.20;99.90;;;;;;7606780;19;20736;-71
2023/09/04 01:02:42;;;;;;;;;;;15.20;99.90;;;;;;7604936;19;20272;-72
2023/09/04 01:05:15;;;;;;;;;;;15.20;99.90;;;;;;7603315;19;20002;-73
2023/09/04 01:07:47;;;;;;;;;;;15.10;99.90;;;;;;7604785;19;19986;-72
2023/09/04 01:10:20;;;;;;;;;;;15.10;99.90;;;;;;7601114;19;19919;-73
2023/09/04 01:12:57;;;;;;;;;;;15.10;99.90;;;;;;7598114;19;19930;-73
2023/09/04 01:15:30;;;;;;;;;;;15.10;99.90;;;;;;7575148;19;19994;-73
2023/09/04 01:18:03;;;;;;;;;;;15.10;99.90;;;;;;7595614;19;19922;-73
2023/09/04 01:20:35;;;;;;;;;;;15.10;99.90;;;;;;7601666;19;19922;-73
2023/09/04 01:23:08;;;;;;;;;;;15.10;99.90;;;;;;7606929;19;19925;-73
2023/09/04 01:25:45;;;;;;;;;;;15.10;99.90;;;;;;7608217;19;19929;-72
2023/09/04 01:28:17;;;;;;;;;;;15.00;99.90;;;;;;7594563;19;21161;-72
2023/09/04 01:31:09;;;;;;;;;;;15.00;99.90;;;;;;7581549;19;19955;-73
2023/09/04 01:33:44;;;;;;;;;;;14.90;99.90;;;;;;7596539;19;19929;-72
2023/09/04 01:36:17;;;;;;;;;;;14.90;99.90;;;;;;7605444;19;20769;-72
2023/09/04 01:38:50;;;;;;;;;;;14.90;99.90;;;;;;7586991;19;20338;-73
2023/09/04 01:41:22;;;;;;;;;;;14.90;99.90;;;;;;7569744;19;20010;-73
2023/09/04 01:43:54;;;;;;;;;;;14.90;99.90;;;;;;7603506;19;19918;-73
2023/09/04 01:46:26;;;;;;;;;;;14.90;99.90;;;;;;7601022;19;19918;-72
2023/09/04 01:48:59;;;;;;;;;;;14.80;99.90;;;;;;7605005;19;19933;-73
2023/09/04 01:51:31;;;;;;;;;;;14.80;99.90;;;;;;7590626;19;20298;-72
2023/09/04 01:54:04;;;;;;;;;;;14.80;99.90;;;;;;7594239;19;20006;-72
2023/09/04 01:56:36;;;;;;;;;;;14.80;99.90;;;;;;7591894;19;19928;-72
2023/09/04 01:59:09;;;;;;;;;;;14.80;99.90;;;;;;7606853;19;19930;-72
2023/09/04 02:01:41;;;;;;;;;;;14.80;99.90;;;;;;7601449;19;20957;-73
2023/09/04 02:04:13;;;;;;;;;;;14.70;99.90;;;;;;7603220;19;19930;-71
2023/09/04 02:06:45;;;;;;;;;;;14.70;99.90;;;;;;7600238;19;19922;-73
2023/09/04 02:09:17;;;;;;;;;;;14.70;99.90;;;;;;7580775;19;19926;-72
2023/09/04 02:11:50;;;;;;;;;;;14.70;99.90;;;;;;7591741;19;19956;-72
2023/09/04 02:14:22;;;;;;;;;;;14.50;99.90;;;;;;7602804;19;20161;-73
2023/09/04 02:16:55;;;;;;;;;;;14.50;99.90;;;;;;7605863;19;19934;-73
2023/09/04 02:19:27;;;;;;;;;;;14.50;99.90;;;;;;7601277;19;21233;-73
2023/09/04 02:21:59;;;;;;;;;;;14.50;99.90;;;;;;7605768;19;19918;-71
2023/09/04 02:24:33;;;;;;;;;;;14.50;99.90;;;;;;7600581;19;19955;-73
2023/09/04 02:27:05;;;;;;;;;;;14.40;99.90;;;;;;7602206;19;20264;-72
2023/09/04 02:29:38;;;;;;;;;;;14.40;99.90;;;;;;7598245;19;19914;-72
2023/09/04 02:32:10;;;;;;;;;;;14.30;99.90;;;;;;7598910;19;19925;-73
2023/09/04 02:34:42;;;;;;;;;;;14.30;99.90;;;;;;7601363;19;19937;-73
2023/09/04 02:37:14;;;;;;;;;;;14.30;99.90;;;;;;7606486;19;19994;-71
2023/09/04 02:39:46;;;;;;;;;;;14.30;99.90;;;;;;7579077;19;21696;-73
2023/09/04 02:42:21;;;;;;;;;;;14.30;99.90;;;;;;7592023;19;20510;-72
2023/09/04 02:44:53;;;;;;;;;;;14.30;99.90;;;;;;7600835;19;19958;-72
2023/09/04 02:47:25;;;;;;;;;;;14.20;99.90;;;;;;7604534;19;20598;-73
2023/09/04 02:49:57;;;;;;;;;;;14.20;99.90;;;;;;7607070;19;19954;-72
2023/09/04 02:52:30;;;;;;;;;;;14.10;99.90;;;;;;7611425;19;20854;-72
2023/09/04 02:55:02;;;;;;;;;;;14.10;99.90;;;;;;7608947;19;20429;-73
2023/09/04 02:57:35;;;;;;;;;;;14.10;99.90;;;;;;7602480;19;19994;-73
2023/09/04 03:00:07;;;;;;;;;;;14.00;99.90;;;;;;7607322;19;19923;-72
2023/09/04 03:02:39;;;;;;;;;;;13.90;99.90;;;;;;7608595;19;20365;-73
2023/09/04 03:05:12;;;;;;;;;;;13.90;99.90;;;;;;7610454;19;20412;-72
2023/09/04 03:07:44;;;;;;;;;;;13.90;99.90;;;;;;7596231;19;19918;-71
2023/09/04 03:10:17;;;;;;;;;;;13.90;99.90;;;;;;7582969;19;20418;-72
2023/09/04 03:12:49;;;;;;;;;;;13.90;99.90;;;;;;7597424;19;19918;-73
2023/09/04 03:15:22;;;;;;;;;;;13.90;99.90;;;;;;7598574;19;19919;-73
2023/09/04 03:17:54;;;;;;;;;;;13.90;99.90;;;;;;7607676;19;19918;-73
2023/09/04 03:20:26;;;;;;;;;;;13.80;99.90;;;;;;7594954;19;19922;-71
2023/09/04 03:23:02;;;;;;;;;;;13.90;99.90;;;;;;7607460;19;20550;-70
2023/09/04 03:25:35;;;;;;;;;;;13.80;99.90;;;;;;7585894;19;19929;-70
2023/09/04 03:28:08;;;;;;;;;;;13.90;99.90;;;;;;7580687;19;19994;-73
2023/09/04 03:30:41;;;;;;;;;;;13.80;99.90;;;;;;7572907;19;19919;-74
2023/09/04 03:33:14;;;;;;;;;;;13.80;99.90;;;;;;7604635;19;19954;-70
2023/09/04 03:35:46;;;;;;;;;;;13.80;99.90;;;;;;7597554;19;19930;-71
2023/09/04 03:38:19;;;;;;;;;;;13.80;99.90;;;;;;7606611;19;19948;-72
2023/09/04 03:40:51;;;;;;;;;;;13.80;99.90;;;;;;7564649;19;19929;-71
2023/09/04 03:43:24;;;;;;;;;;;13.80;99.90;;;;;;7566834;19;20142;-72
2023/09/04 03:45:57;;;;;;;;;;;13.80;99.90;;;;;;7596809;19;19926;-70
2023/09/04 03:48:30;;;;;;;;;;;13.70;99.90;;;;;;7607205;19;19927;-72
2023/09/04 03:51:02;;;;;;;;;;;13.70;99.90;;;;;;7606274;19;19933;-72
2023/09/04 03:53:34;;;;;;;;;;;13.60;99.90;;;;;;7604453;19;19919;-72
2023/09/04 03:56:07;;;;;;;;;;;13.70;99.90;;;;;;7568572;19;20971;-71
2023/09/04 03:58:40;;;;;;;;;;;13.60;99.90;;;;;;7582790;19;19978;-72
2023/09/04 04:01:12;;;;;;;;;;;13.60;99.90;;;;;;7606641;19;19918;-72
2023/09/04 04:03:44;;;;;;;;;;;13.60;99.90;;;;;;7586578;19;19968;-73
2023/09/04 04:06:17;;;;;;;;;;;13.50;99.90;;;;;;7581475;19;20081;-73
2023/09/04 04:08:54;;;;;;;;;;;13.50;99.90;;;;;;7583075;19;19922;-73
2023/09/04 04:11:27;;;;;;;;;;;13.50;99.90;;;;;;7587895;19;19914;-73
2023/09/04 04:14:00;;;;;;;;;;;13.50;99.90;;;;;;7591718;19;19926;-72
2023/09/04 04:16:33;;;;;;;;;;;13.40;99.90;;;;;;7582663;19;19934;-71
2023/09/04 04:19:06;;;;;;;;;;;13.40;99.90;;;;;;7594968;19;19927;-73
2023/09/04 04:21:39;;;;;;;;;;;13.50;99.90;;;;;;7599841;19;20303;-72
2023/09/04 04:24:11;;;;;;;;;;;13.40;99.90;;;;;;7599992;19;19915;-70
2023/09/04 04:26:43;;;;;;;;;;;13.40;99.90;;;;;;7596971;19;20450;-72
2023/09/04 04:29:16;;;;;;;;;;;13.40;99.90;;;;;;7598061;19;19998;-72
2023/09/04 04:31:48;;;;;;;;;;;13.50;99.90;;;;;;7588542;19;20654;-72
2023/09/04 04:34:21;;;;;;;;;;;13.40;99.90;;;;;;7582808;19;20493;-73
2023/09/04 04:36:55;;;;;;;;;;;13.30;99.90;;;;;;7575080;19;19978;-72
2023/09/04 04:39:27;;;;;;;;;;;13.30;99.90;;;;;;7595223;19;21186;-73
2023/09/04 04:42:01;;;;;;;;;;;13.20;99.90;;;;;;7597623;19;19913;-70
2023/09/04 04:44:34;;;;;;;;;;;13.20;99.90;;;;;;7593908;19;19995;-72
2023/09/04 04:47:07;;;;;;;;;;;13.20;99.90;;;;;;7587201;19;19926;-70
2023/09/04 04:49:40;;;;;;;;;;;13.20;99.90;;;;;;7573659;19;19914;-73
2023/09/04 04:52:12;;;;;;;;;;;13.20;99.90;;;;;;7565299;19;20649;-72
2023/09/04 04:54:45;;;;;;;;;;;13.20;99.90;;;;;;7573456;19;20448;-71
2023/09/04 04:57:17;;;;;;;;;;;13.20;99.90;;;;;;7578671;19;19918;-71
2023/09/04 04:59:49;;;;;;;;;;;13.20;99.90;;;;;;7553293;19;19925;-72
2023/09/04 05:02:21;;;;;;;;;;;13.20;99.90;;;;;;7576917;19;19922;-73
2023/09/04 05:04:54;;;;;;;;;;;13.30;99.90;;;;;;7579192;19;20696;-72
2023/09/04 05:07:31;;;;;;;;;;;13.30;99.90;;;;;;7572757;19;19914;-73
2023/09/04 05:10:04;;;;;;;;;;;13.20;99.90;;;;;;7544331;19;21161;-72
2023/09/04 05:12:36;;;;;;;;;;;13.20;99.90;;;;;;7569018;19;19918;-71
2023/09/04 05:15:08;;;;;;;;;;;13.30;99.90;;;;;;7567966;19;19925;-70
2023/09/04 05:17:41;;;;;;;;;;;13.40;99.90;;;;;;7581856;19;19922;-71
2023/09/04 05:20:13;;;;;;;;;;;13.40;99.90;;;;;;7603192;19;20025;-71
2023/09/04 05:22:45;;;;;;;;;;;13.40;99.90;;;;;;7570705;19;20514;-71
2023/09/04 05:25:17;;;;;;;;;;;13.50;99.90;;;;;;7590075;19;19926;-70
2023/09/04 05:27:51;;;;;;;;;;;13.50;99.90;;;;;;7569372;19;20670;-72
2023/09/04 05:30:24;;;;;;;;;;;13.60;99.90;;;;;;7571450;19;20565;-70
2023/09/04 05:32:56;;;;;;;;;;;13.60;99.90;;;;;;7566794;19;19919;-72
2023/09/04 05:35:28;;;;;;;;;;;13.70;99.90;;;;;;7563037;19;20048;-70
2023/09/04 05:38:01;;;;;;;;;;;13.60;99.90;;;;;;7552498;19;20405;-70
2023/09/04 05:40:33;;;;;;;;;;;13.70;99.90;;;;;;7567089;19;19923;-71
2023/09/04 05:43:06;;;;;;;;;;;13.70;99.90;;;;;;7553042;19;19937;-74
2023/09/04 05:45:39;;;;;;;;;;;13.80;99.90;;;;;;7539631;19;21611;-72
2023/09/04 05:48:11;;;;;;;;;;;13.90;99.90;;;;;;7482516;19;19925;-72
2023/09/04 05:50:43;;;;;;;;;;;14.00;99.90;;;;;;7511888;19;19918;-72
2023/09/04 05:53:19;;;;;;;;;;;14.10;99.90;;;;;;7562500;19;20384;-72
2023/09/04 05:56:09;;;;;;;;;;;14.20;99.90;;;;;;7538636;19;21306;-71
2023/09/04 05:58:43;;;;;;;;;;;14.20;99.90;;;;;;7547433;19;19943;-72
2023/09/04 06:01:15;;;;;;;;;;;14.30;99.90;;;;;;7533626;19;19911;-73
2023/09/04 06:03:48;;;;;;;;;;;14.40;99.90;;;;;;7579380;19;19930;-74
2023/09/04 06:06:21;;;;;;;;;;;14.40;99.90;;;;;;7558231;19;20235;-73
2023/09/04 06:08:53;;;;;;;;;;;14.60;99.90;;;;;;7556984;19;19931;-73
2023/09/04 06:11:25;;;;;;;;;;;14.80;99.90;;;;;;7541949;19;19919;-72
2023/09/04 06:13:57;;;;;;;;;;;14.90;99.90;;;;;;7535045;19;20743;-73
2023/09/04 06:16:30;;;;;;;;;;;15.00;99.90;;;;;;7544302;19;19915;-75
2023/09/04 06:19:02;;;;;;;;;;;15.20;99.90;;;;;;7544778;19;19922;-74
2023/09/04 06:21:34;;;;;;;;;;;15.30;99.90;;;;;;7555684;19;20386;-73
2023/09/04 06:24:06;;;;;;;;;;;15.40;99.90;;;;;;7537228;19;20911;-77
2023/09/04 06:26:38;;;;;;;;;;;15.50;99.90;;;;;;7554791;19;19923;-75
2023/09/04 06:29:11;;;;;;;;;;;15.60;99.90;;;;;;7577013;19;19926;-74
2023/09/04 06:31:43;;;;;;;;;;;15.70;99.90;;;;;;7559760;19;19934;-75
2023/09/04 06:34:15;;;;;;;;;;;15.90;99.90;;;;;;7551974;19;19930;-74
2023/09/04 06:36:48;;;;;;;;;;;16.00;99.90;;;;;;7548065;19;19926;-75
2023/09/04 06:39:20;;;;;;;;;;;16.10;99.90;;;;;;7548526;19;19918;-74
2023/09/04 06:41:52;;;;;;;;;;;16.20;99.90;;;;;;7520528;19;20861;-75
2023/09/04 06:44:25;;;;;;;;;;;16.40;99.90;;;;;;7516979;19;20672;-75
2023/09/04 06:46:57;;;;;;;;;;;16.60;99.90;;;;;;7540493;19;19925;-75
2023/09/04 06:49:32;;;;;;;;;;;16.70;99.90;;;;;;7491592;19;19948;-74
2023/09/04 06:52:05;;;;;;;;;;;16.90;99.90;;;;;;7526756;19;19926;-74
2023/09/04 06:54:37;;;;;;;;;;;17.00;99.90;;;;;;7536737;19;22102;-75
2023/09/04 06:57:10;;;;;;;;;;;17.20;99.90;;;;;;7539768;19;19944;-74
2023/09/04 06:59:42;;;;;;;;;;;17.40;99.90;;;;;;7569231;19;19929;-77
2023/09/04 07:02:14;;;;;;;;;;;17.50;99.90;;;;;;7534692;19;19952;-77
2023/09/04 07:04:46;;;;;;;;;;;17.50;99.90;;;;;;7530746;19;19918;-75
2023/09/04 07:07:18;;;;;;;;;;;17.70;99.90;;;;;;7551705;19;19918;-76
2023/09/04 07:09:51;;;;;;;;;;;17.80;99.90;;;;;;7516168;19;20657;-76
2023/09/04 07:12:23;;;;;;;;;;;17.90;99.90;;;;;;7554544;19;19926;-76
2023/09/04 07:14:55;;;;;;;;;;;18.10;99.90;;;;;;7564391;19;19931;-76
2023/09/04 07:17:27;;;;;;;;;;;18.20;99.90;;;;;;7537716;19;19930;-75
2023/09/04 07:20:00;;;;;;;;;;;18.40;99.90;;;;;;7524056;19;19926;-75
2023/09/04 07:22:32;;;;;;;;;;;18.40;99.90;;;;;;7536120;19;20002;-75
2023/09/04 07:25:05;;;;;;;;;;;18.60;99.90;;;;;;7542986;19;19994;-75
2023/09/04 07:27:38;;;;;;;;;;;18.70;99.90;;;;;;7556634;19;19938;-75
2023/09/04 07:30:10;;;;;;;;;;;18.80;99.90;;;;;;7548913;19;20916;-75
2023/09/04 07:32:42;;;;;;;;;;;18.90;99.90;;;;;;7556694;19;20339;-77
2023/09/04 07:35:15;;;;;;;;;;;19.10;99.90;;;;;;7569882;19;19941;-75
2023/09/04 07:37:47;;;;;;;;;;;19.10;99.90;;;;;;7569167;19;19929;-76
2023/09/04 07:40:19;;;;;;;;;;;19.20;99.90;;;;;;7523515;19;20001;-75
2023/09/04 07:42:51;;;;;;;;;;;19.40;99.90;;;;;;7534417;19;20090;-75
2023/09/04 07:45:24;;;;;;;;;;;19.50;99.90;;;;;;7531439;19;19934;-75
2023/09/04 07:47:56;;;;;;;;;;;19.60;99.90;;;;;;7530315;19;20006;-75
2023/09/04 07:50:28;;;;;;;;;;;19.60;99.90;;;;;;7511699;19;19982;-76
2023/09/04 07:53:01;;;;;;;;;;;19.70;99.90;;;;;;7538898;19;19918;-76
2023/09/04 07:55:34;;;;;;;;;;;19.90;99.90;;;;;;7516856;19;19934;-75
2023/09/04 07:58:07;;;;;;;;;;;19.90;99.90;;;;;;7524868;19;19933;-75
2023/09/04 08:00:49;;;;;;;;;;;20.00;99.90;;;;;;7528888;19;19923;-75
2023/09/04 08:03:22;;;;;;;;;;;20.10;99.90;;;;;;7531300;19;19922;-74
2023/09/04 08:05:55;;;;;;;;;;;20.20;99.90;;;;;;7534993;19;19930;-73
2023/09/04 08:08:27;;;;;;;;;;;20.10;99.90;;;;;;7552669;19;20311;-73
2023/09/04 08:11:00;;;;;;;;;;;20.20;99.90;;;;;;7559136;19;20919;-73
2023/09/04 08:13:32;;;;;;;;;;;20.30;99.90;;;;;;7538652;19;19982;-74
2023/09/04 08:16:04;;;;;;;;;;;20.50;99.90;;;;;;7520420;19;20823;-77
2023/09/04 08:18:36;;;;;;;;;;;20.50;99.90;;;;;;7581446;19;19922;-76
2023/09/04 08:21:09;;;;;;;;;;;20.50;99.90;;;;;;7566904;19;20483;-75
2023/09/04 08:23:41;;;;;;;;;;;20.60;99.90;;;;;;7548131;19;19926;-75
2023/09/04 08:26:14;;;;;;;;;;;20.70;99.90;;;;;;7524386;19;21068;-75
2023/09/04 08:28:46;;;;;;;;;;;20.80;99.90;;;;;;7511535;19;20001;-75
2023/09/04 08:31:19;;;;;;;;;;;20.70;99.90;;;;;;7540921;19;19948;-75
2023/09/04 08:33:51;;;;;;;;;;;20.80;99.90;;;;;;7551801;19;19915;-75
2023/09/04 08:36:23;;;;;;;;;;;20.80;99.90;;;;;;7512448;19;21279;-74
2023/09/04 08:38:55;;;;;;;;;;;20.90;99.90;;;;;;7539614;19;20800;-74
2023/09/04 08:41:28;;;;;;;;;;;20.90;99.90;;;;;;7553680;19;19923;-74
2023/09/04 08:44:01;;;;;;;;;;;20.90;99.90;;;;;;7563626;19;19918;-73
2023/09/04 08:46:34;;;;;;;;;;;21.00;99.90;;;;;;7552021;19;19959;-75
2023/09/04 08:49:07;;;;;;;;;;;21.10;99.90;;;;;;7546767;19;19922;-75
2023/09/04 08:51:39;;;;;;;;;;;21.30;99.90;;;;;;7541302;19;19911;-75
2023/09/04 08:54:11;;;;;;;;;;;21.30;99.90;;;;;;7546785;19;20456;-74
2023/09/04 08:56:44;;;;;;;;;;;21.30;99.90;;;;;;7545384;19;20038;-74
2023/09/04 08:59:16;;;;;;;;;;;21.30;99.90;;;;;;7562619;19;19919;-74
2023/09/04 09:01:48;;;;;;;;;;;21.40;99.90;;;;;;7514010;19;20167;-75
2023/09/04 09:04:21;;;;;;;;;;;21.40;99.90;;;;;;7513978;19;19922;-77
2023/09/04 09:06:54;;;;;;;;;;;21.40;99.90;;;;;;7542645;19;19911;-75
2023/09/04 09:09:27;;;;;;;;;;;21.50;99.90;;;;;;7553772;19;20037;-75
2023/09/04 09:11:59;;;;;;;;;;;21.40;99.90;;;;;;7571456;19;19930;-75
2023/09/04 09:14:31;;;;;;;;;;;21.40;99.90;;;;;;7582960;19;19914;-75
2023/09/04 09:17:08;;;;;;;;;;;21.40;99.90;;;;;;7548772;19;19922;-74
2023/09/04 09:19:42;;;;;;;;;;;21.40;99.90;;;;;;7555847;19;22062;-74
2023/09/04 09:22:15;;;;;;;;;;;21.40;99.90;;;;;;7551109;19;19926;-77
2023/09/04 09:24:52;;;;;;;;;;;21.50;99.90;;;;;;7537287;19;19948;-76
2023/09/04 09:27:27;;;;;;;;;;;21.50;99.90;;;;;;7522732;19;19923;-74
2023/09/04 09:30:00;;;;;;;;;;;21.50;99.90;;;;;;7540345;19;21368;-76
2023/09/04 09:32:33;;;;;;;;;;;21.60;99.90;;;;;;7478239;19;19990;-75
2023/09/04 09:35:05;;;;;;;;;;;21.70;99.90;;;;;;7518210;19;20803;-76
2023/09/04 09:37:37;;;;;;;;;;;21.70;99.90;;;;;;7572128;19;21768;-74
2023/09/04 09:40:14;;;;;;;;;;;21.70;99.90;;;;;;7557930;19;19931;-75
2023/09/04 09:42:46;;;;;;;;;;;21.80;99.90;;;;;;7547521;19;20399;-75
2023/09/04 09:45:19;;;;;;;;;;;21.80;99.90;;;;;;7545488;19;19914;-74
2023/09/04 09:47:53;;;;;;;;;;;21.70;99.90;;;;;;7544130;19;19927;-74
2023/09/04 09:50:28;;;;;;;;;;;21.80;99.90;;;;;;7573950;19;19918;-75
2023/09/04 09:53:01;;;;;;;;;;;21.90;99.90;;;;;;7529075;19;19918;-74
2023/09/04 09:55:35;;;;;;;;;;;22.00;99.90;;;;;;7571847;19;19918;-74
2023/09/04 09:58:07;;;;;;;;;;;22.10;99.90;;;;;;7586949;19;20551;-75
2023/09/04 10:00:40;;;;;;;;;;;22.10;99.90;;;;;;7588483;19;20196;-74
2023/09/04 10:03:15;;;;;;;;;;;22.10;99.90;;;;;;7577636;19;19995;-74
2023/09/04 10:05:47;;;;;;;;;;;22.20;99.90;;;;;;7578595;19;22679;-75
2023/09/04 10:08:21;;;;;;;;;;;22.30;99.90;;;;;;7591659;19;20629;-74
2023/09/04 10:10:54;;;;;;;;;;;22.30;99.90;;;;;;7555741;19;20013;-75
2023/09/04 10:13:27;;;;;;;;;;;22.30;99.90;;;;;;7567181;19;19946;-74
2023/09/04 10:16:01;;;;;;;;;;;22.30;99.90;;;;;;7564458;19;19934;-75
2023/09/04 10:18:40;;;;;;;;;;;22.40;99.90;;;;;;7583051;19;20902;-75
2023/09/04 10:21:14;;;;;;;;;;;22.40;99.90;;;;;;7587246;19;19926;-74
2023/09/04 10:23:55;;;;;;;;;;;22.40;99.90;;;;;;7579939;19;19957;-74
2023/09/04 10:26:39;;;;;;;;;;;22.50;99.90;;;;;;7573958;19;20436;-75
2023/09/04 10:29:11;;;;;;;;;;;22.60;99.90;;;;;;7597949;19;19956;-75
2023/09/04 10:31:44;;;;;;;;;;;22.60;99.90;;;;;;7589690;19;19928;-74
2023/09/04 10:34:16;;;;;;;;;;;22.70;99.90;;;;;;7587994;19;20006;-75
2023/09/04 10:36:49;;;;;;;;;;;22.80;99.90;;;;;;7595305;19;19914;-74
2023/09/04 10:39:21;;;;;;;;;;;22.80;99.90;;;;;;7573550;19;19911;-75
2023/09/04 10:41:53;;;;;;;;;;;22.90;99.90;;;;;;7571098;19;19918;-74
2023/09/04 10:44:45;;;;;;;;;;;22.90;99.90;;;;;;7584659;19;20010;-74
2023/09/04 10:47:18;;;;;;;;;;;23.00;99.90;;;;;;7584302;19;19929;-74
2023/09/04 10:49:51;;;;;;;;;;;23.00;99.90;;;;;;7577842;19;19917;-73
2023/09/04 10:52:38;;;;;;;;;;;23.00;99.90;;;;;;7595846;19;19923;-73
2023/09/04 10:55:12;;;;;;;;;;;23.10;99.60;;;;;;7581573;19;19929;-74
2023/09/04 10:57:55;;;;;;;;;;;23.10;99.50;;;;;;7567702;19;20948;-73
2023/09/04 11:00:28;;;;;;;;;;;23.30;99.90;;;;;;7552804;19;20303;-73
2023/09/04 11:03:21;;;;;;;;;;;23.40;99.90;;;;;;7575954;19;19915;-73
2023/09/04 11:06:04;;;;;;;;;;;23.40;99.70;;;;;;7575529;19;19940;-73
2023/09/04 11:08:40;;;;;;;;;;;23.40;95.30;;;;;;7595068;19;20450;-74
2023/09/04 11:11:13;;;;;;;;;;;23.50;95.70;;;;;;7591832;19;19928;-74
2023/09/04 11:13:45;;;;;;;;;;;23.50;95.70;;;;;;7571031;19;19923;-74
2023/09/04 11:16:17;;;;;;;;;;;23.80;95.40;;;;;;7575831;19;19941;-74
2023/09/04 11:18:59;;;;;;;;;;;24.00;94.60;;;;;;7591320;19;19927;-73
2023/09/04 11:21:33;;;;;;;;;;;24.20;95.20;;;;;;7582257;19;19919;-74
2023/09/04 11:24:05;;;;;;;;;;;24.40;95.60;;;;;;7571773;19;19923;-74
2023/09/04 11:26:38;;;;;;;;;;;24.70;94.20;;;;;;7589676;19;20437;-73
2023/09/04 11:29:10;;;;;;;;;;;24.90;93.90;;;;;;7599466;19;19989;-73
2023/09/04 11:31:43;;;;;;;;;;;25.20;92.90;;;;;;7597175;19;19914;-74
2023/09/04 11:34:37;;;;;;;;;;;25.70;92.70;;;;;;7601856;19;19998;-74
2023/09/04 11:37:12;;;;;;;;;;;26.00;92.90;;;;;;7597714;19;19918;-74
2023/09/04 11:39:54;;;;;;;;;;;26.20;90.40;;;;;;7600925;19;19918;-74
2023/09/04 11:42:34;;;;;;;;;;;26.40;89.70;;;;;;7597024;19;20018;-74
2023/09/04 11:45:07;;;;;;;;;;;26.60;87.70;;;;;;7592962;19;19930;-74
2023/09/04 11:47:39;;;;;;;;;;;26.70;87.90;;;;;;7585121;19;20501;-75
2023/09/04 11:50:15;;;;;;;;;;;26.90;85.90;;;;;;7571180;19;19956;-74
2023/09/04 11:52:48;;;;;;;;;;;27.10;85.30;;;;;;7596115;19;19953;-74
2023/09/04 11:55:23;;;;;;;;;;;27.40;81.00;;;;;;7594798;19;19953;-74
2023/09/04 11:57:57;;;;;;;;;;;27.70;77.80;;;;;;7592031;19;20480;-74
2023/09/04 12:00:29;;;;;;;;;;;27.90;77.50;;;;;;7592339;19;19949;-74
2023/09/04 12:03:01;;;;;;;;;;;28.10;76.50;;;;;;7597426;19;20673;-74
2023/09/04 12:05:37;;;;;;;;;;;28.20;77.60;;;;;;7581864;19;19918;-74
2023/09/04 12:08:12;;;;;;;;;;;28.30;74.30;;;;;;7578381;19;22352;-74
2023/09/04 12:10:51;;;;;;;;;;;28.30;74.50;;;;;;7595001;19;19929;-74
2023/09/04 12:13:23;;;;;;;;;;;28.50;70.40;;;;;;7593168;19;20775;-74
2023/09/04 12:16:03;;;;;;;;;;;28.60;71.70;;;;;;7593809;19;19915;-74
2023/09/04 12:18:39;;;;;;;;;;;29.00;74.10;;;;;;7575278;19;19933;-74
2023/09/04 12:21:11;;;;;;;;;;;29.10;67.50;;;;;;7586735;19;19923;-74
2023/09/04 12:23:47;;;;;;;;;;;29.30;66.90;;;;;;7588007;19;20332;-73
2023/09/04 12:26:19;;;;;;;;;;;29.50;70.70;;;;;;7595063;19;20717;-74
2023/09/04 12:28:52;;;;;;;;;;;29.80;73.70;;;;;;7592236;19;19947;-74
2023/09/04 12:31:24;;;;;;;;;;;29.90;69.70;;;;;;7579369;19;19998;-74
2023/09/04 12:33:57;;;;;;;;;;;29.60;69.90;;;;;;7585852;19;19911;-74
2023/09/04 12:36:33;;;;;;;;;;;29.50;68.10;;;;;;7592154;19;19933;-74
2023/09/04 12:39:06;;;;;;;;;;;29.80;66.00;;;;;;7587073;19;19923;-74
2023/09/04 12:41:39;;;;;;;;;;;29.70;67.90;;;;;;7586571;19;19922;-74
2023/09/04 12:44:12;;;;;;;;;;;29.80;66.20;;;;;;7582287;19;20003;-74
2023/09/04 12:46:44;;;;;;;;;;;30.00;68.20;;;;;;7580428;19;20444;-74
2023/09/04 12:49:17;;;;;;;;;;;30.20;65.10;;;;;;7588723;19;20836;-74
2023/09/04 12:51:49;;;;;;;;;;;30.30;66.90;;;;;;7594502;19;19926;-73
2023/09/04 12:54:21;;;;;;;;;;;30.50;63.60;;;;;;7583179;19;19922;-74
2023/09/04 12:56:54;;;;;;;;;;;30.40;65.10;;;;;;7588792;19;19990;-74
2023/09/04 12:59:26;;;;;;;;;;;30.40;67.20;;;;;;7579864;19;19938;-74
2023/09/04 13:01:58;;;;;;;;;;;30.70;67.10;;;;;;7564691;19;19929;-74
2023/09/04 13:04:31;;;;;;;;;;;30.20;66.10;;;;;;7579723;19;19922;-73
2023/09/04 13:07:03;;;;;;;;;;;30.50;66.40;;;;;;7599004;19;19922;-73
2023/09/04 13:09:38;;;;;;;;;;;30.60;64.60;;;;;;7560742;19;20258;-73
2023/09/04 13:12:13;;;;;;;;;;;30.30;63.70;;;;;;7565064;19;19922;-74
2023/09/04 13:14:45;;;;;;;;;;;30.50;65.20;;;;;;7575681;19;19933;-74
2023/09/04 13:17:18;;;;;;;;;;;30.50;63.50;;;;;;7579162;19;19998;-74
2023/09/04 13:19:50;;;;;;;;;;;30.80;65.60;;;;;;7571918;19;19942;-74
2023/09/04 13:22:23;;;;;;;;;;;30.90;64.50;;;;;;7574893;19;19922;-74
2023/09/04 13:24:56;;;;;;;;;;;30.90;66.10;;;;;;7563226;19;19990;-73
2023/09/04 13:27:31;;;;;;;;;;;31.00;65.00;;;;;;7576206;19;19919;-74
2023/09/04 13:30:03;;;;;;;;;;;30.80;66.50;;;;;;7588159;19;20341;-73
2023/09/04 13:32:37;;;;;;;;;;;31.10;65.00;;;;;;7576288;19;19922;-74
2023/09/04 13:35:09;;;;;;;;;;;31.20;65.60;;;;;;7572132;19;19922;-74
2023/09/04 13:37:41;;;;;;;;;;;31.20;64.50;;;;;;7581672;19;19930;-74
2023/09/04 13:40:14;;;;;;;;;;;31.30;63.70;;;;;;7581143;19;19967;-75
2023/09/04 13:42:47;;;;;;;;;;;31.30;64.20;;;;;;7549683;19;19919;-72
2023/09/04 13:45:19;;;;;;;;;;;31.40;63.00;;;;;;7557864;19;20624;-76
2023/09/04 13:47:52;;;;;;;;;;;31.10;62.70;;;;;;7561684;19;20333;-74
2023/09/04 13:50:27;;;;;;;;;;;30.70;64.10;;;;;;7554834;19;19926;-74
2023/09/04 13:52:59;;;;;;;;;;;30.90;63.20;;;;;;7570841;19;19952;-74
2023/09/04 13:55:31;;;;;;;;;;;31.20;63.00;;;;;;7559461;19;19974;-74
2023/09/04 13:58:04;;;;;;;;;;;31.30;64.30;;;;;;7564102;19;20473;-74
2023/09/04 14:00:40;;;;;;;;;;;31.50;62.40;;;;;;7573796;19;20281;-74
2023/09/04 14:03:12;;;;;;;;;;;31.50;60.90;;;;;;7577111;19;19907;-74
2023/09/04 14:05:45;;;;;;;;;;;31.50;62.30;;;;;;7546745;19;19930;-74
2023/09/04 14:08:17;;;;;;;;;;;31.30;62.00;;;;;;7543405;19;19990;-74
2023/09/04 14:10:50;;;;;;;;;;;31.00;63.20;;;;;;7549907;19;20137;-74
2023/09/04 14:13:22;;;;;;;;;;;31.20;64.50;;;;;;7569061;19;19918;-74
2023/09/04 14:15:56;;;;;;;;;;;31.30;63.10;;;;;;7551579;19;20322;-73
2023/09/04 14:18:28;;;;;;;;;;;31.30;61.50;;;;;;7557273;19;19923;-74
2023/09/04 14:21:00;;;;;;;;;;;31.20;62.60;;;;;;7563359;19;19941;-74
2023/09/04 14:23:33;;;;;;;;;;;31.00;61.60;;;;;;7560128;19;19918;-74
2023/09/04 14:26:07;;;;;;;;;;;30.70;61.50;;;;;;7574969;19;19919;-74
2023/09/04 14:28:39;;;;;;;;;;;30.40;61.80;;;;;;7534819;19;20474;-73
2023/09/04 14:31:13;;;;;;;;;;;30.60;62.20;;;;;;7564643;19;19930;-74
2023/09/04 14:33:45;;;;;;;;;;;30.70;61.80;;;;;;7550398;19;19923;-73
2023/09/04 14:36:18;;;;;;;;;;;30.60;61.10;;;;;;7545648;19;20127;-73
2023/09/04 14:38:51;;;;;;;;;;;30.40;62.40;;;;;;7572426;19;19918;-73
2023/09/04 14:41:28;;;;;;;;;;;30.20;64.60;;;;;;7563687;19;20430;-74
2023/09/04 14:44:01;;;;;;;;;;;29.90;65.70;;;;;;7550113;19;19956;-74
2023/09/04 14:46:34;;;;;;;;;;;29.40;66.50;;;;;;7554389;19;19918;-74
2023/09/04 14:49:10;;;;;;;;;;;28.90;67.80;;;;;;7573791;19;19981;-73
2023/09/04 14:51:43;;;;;;;;;;;28.00;69.30;;;;;;7541942;19;21216;-73